sensor_id;sensor_type;location;lat;lon;timestamp;P1;durP1;ratioP1;P2;durP2;ratioP2
64515;SDS011;50891;37.380;-122.076;2022-10-22T00:02:11;28.40;;;16.90;;
64515;SDS011;50891;37.380;-122.076;2022-10-22T00:04:40;24.55;;;16.23;;
64515;SDS011;50891;37.380;-122.076;2022-10-22T00:07:06;27.83;;;16.87;;
64515;SDS011;50891;37.380;-122.076;2022-10-22T00:09:32;26.80;;;17.50;;
64515;SDS011;50891;37.380;-122.076;2022-10-22T00:11:58;28.38;;;17.15;;
64515;SDS011;50891;37.380;-122.076;2022-10-22T00:14:25;28.83;;;17.50;;
64515;SDS011;50891;37.380;-122.076;2022-10-22T00:16:51;28.73;;;17.35;;
64515;SDS011;50891;37.380;-122.076;2022-10-22T00:19:17;27.58;;;17.15;;
64515;SDS011;50891;37.380;-122.076;2022-10-22T00:21:43;27.03;;;17.33;;
64515;SDS011;50891;37.380;-122.076;2022-10-22T00:24:09;27.52;;;17.05;;
64515;SDS011;50891;37.380;-122.076;2022-10-22T00:26:35;29.52;;;17.55;;
64515;SDS011;50891;37.380;-122.076;2022-10-22T00:29:03;27.38;;;17.02;;
64515;SDS011;50891;37.380;-122.076;2022-10-22T00:31:29;26.50;;;17.00;;
64515;SDS011;50891;37.380;-122.076;2022-10-22T00:33:56;26.63;;;16.60;;
64515;SDS011;50891;37.380;-122.076;2022-10-22T00:36:22;25.90;;;16.67;;
64515;SDS011;50891;37.380;-122.076;2022-10-22T00:38:48;26.83;;;16.17;;
64515;SDS011;50891;37.380;-122.076;2022-10-22T00:41:14;27.02;;;15.98;;
64515;SDS011;50891;37.380;-122.076;2022-10-22T00:43:54;26.15;;;16.27;;
64515;SDS011;50891;37.380;-122.076;2022-10-22T00:46:26;25.75;;;16.23;;
64515;SDS011;50891;37.380;-122.076;2022-10-22T00:48:53;27.40;;;16.48;;
64515;SDS011;50891;37.380;-122.076;2022-10-22T00:51:22;28.85;;;16.73;;
64515;SDS011;50891;37.380;-122.076;2022-10-22T00:53:53;24.67;;;15.85;;
64515;SDS011;50891;37.380;-122.076;2022-10-22T00:56:24;24.50;;;16.02;;
64515;SDS011;50891;37.380;-122.076;2022-10-22T00:58:51;28.15;;;15.75;;
64515;SDS011;50891;37.380;-122.076;2022-10-22T01:01:26;25.27;;;16.45;;
64515;SDS011;50891;37.380;-122.076;2022-10-22T01:03:55;25.42;;;15.88;;
64515;SDS011;50891;37.380;-122.076;2022-10-22T01:06:23;25.90;;;15.80;;
64515;SDS011;50891;37.380;-122.076;2022-10-22T01:14:24;26.40;;;15.93;;
64515;SDS011;50891;37.380;-122.076;2022-10-22T01:22:38;24.88;;;15.88;;
64515;SDS011;50891;37.380;-122.076;2022-10-22T01:30:32;25.10;;;15.88;;
64515;SDS011;50891;37.380;-122.076;2022-10-22T01:33:02;22.63;;;14.85;;
64515;SDS011;50891;37.380;-122.076;2022-10-22T01:35:35;24.00;;;15.20;;
64515;SDS011;50891;37.380;-122.076;2022-10-22T01:38:08;23.73;;;15.40;;
64515;SDS011;50891;37.380;-122.076;2022-10-22T01:40:38;24.43;;;15.80;;
64515;SDS011;50891;37.380;-122.076;2022-10-22T01:43:07;26.17;;;16.02;;
64515;SDS011;50891;37.380;-122.076;2022-10-22T01:45:35;26.02;;;15.60;;
64515;SDS011;50891;37.380;-122.076;2022-10-22T01:56:48;23.73;;;14.73;;
64515;SDS011;50891;37.380;-122.076;2022-10-22T02:07:14;26.10;;;16.33;;
64515;SDS011;50891;37.380;-122.076;2022-10-22T02:09:43;25.27;;;16.10;;
64515;SDS011;50891;37.380;-122.076;2022-10-22T02:12:10;26.63;;;15.88;;
64515;SDS011;50891;37.380;-122.076;2022-10-22T02:14:39;26.00;;;16.50;;
64515;SDS011;50891;37.380;-122.076;2022-10-22T02:17:09;25.88;;;16.35;;
64515;SDS011;50891;37.380;-122.076;2022-10-22T02:22:17;26.13;;;16.85;;
64515;SDS011;50891;37.380;-122.076;2022-10-22T02:24:44;26.60;;;16.75;;
64515;SDS011;50891;37.380;-122.076;2022-10-22T02:27:17;26.70;;;17.08;;
64515;SDS011;50891;37.380;-122.076;2022-10-22T02:32:41;24.90;;;16.63;;
64515;SDS011;50891;37.380;-122.076;2022-10-22T02:35:28;24.73;;;15.88;;
64515;SDS011;50891;37.380;-122.076;2022-10-22T02:37:56;26.70;;;16.43;;
64515;SDS011;50891;37.380;-122.076;2022-10-22T02:40:26;25.67;;;16.45;;
64515;SDS011;50891;37.380;-122.076;2022-10-22T02:42:55;24.55;;;16.63;;
64515;SDS011;50891;37.380;-122.076;2022-10-22T02:45:21;25.58;;;16.77;;
64515;SDS011;50891;37.380;-122.076;2022-10-22T02:47:48;25.73;;;16.25;;
64515;SDS011;50891;37.380;-122.076;2022-10-22T02:50:14;27.00;;;16.15;;
64515;SDS011;50891;37.380;-122.076;2022-10-22T02:52:40;26.02;;;16.75;;
64515;SDS011;50891;37.380;-122.076;2022-10-22T02:55:07;26.08;;;16.75;;
64515;SDS011;50891;37.380;-122.076;2022-10-22T02:57:33;27.83;;;17.25;;
64515;SDS011;50891;37.380;-122.076;2022-10-22T02:59:59;25.23;;;16.35;;
64515;SDS011;50891;37.380;-122.076;2022-10-22T03:02:26;26.90;;;17.42;;
64515;SDS011;50891;37.380;-122.076;2022-10-22T03:04:52;27.48;;;17.73;;
64515;SDS011;50891;37.380;-122.076;2022-10-22T03:07:18;26.40;;;16.87;;
64515;SDS011;50891;37.380;-122.076;2022-10-22T03:09:44;26.17;;;16.70;;
64515;SDS011;50891;37.380;-122.076;2022-10-22T03:12:11;27.95;;;17.10;;
64515;SDS011;50891;37.380;-122.076;2022-10-22T03:14:37;23.83;;;16.23;;
64515;SDS011;50891;37.380;-122.076;2022-10-22T03:17:03;27.33;;;16.60;;
64515;SDS011;50891;37.380;-122.076;2022-10-22T03:19:29;24.77;;;17.08;;
64515;SDS011;50891;37.380;-122.076;2022-10-22T03:21:56;26.20;;;16.60;;
64515;SDS011;50891;37.380;-122.076;2022-10-22T03:24:34;23.95;;;16.38;;
64515;SDS011;50891;37.380;-122.076;2022-10-22T03:27:06;26.10;;;16.42;;
64515;SDS011;50891;37.380;-122.076;2022-10-22T03:29:33;25.17;;;16.33;;
64515;SDS011;50891;37.380;-122.076;2022-10-22T03:32:02;25.67;;;16.77;;
64515;SDS011;50891;37.380;-122.076;2022-10-22T03:34:28;24.42;;;15.95;;
64515;SDS011;50891;37.380;-122.076;2022-10-22T03:36:55;27.77;;;17.08;;
64515;SDS011;50891;37.380;-122.076;2022-10-22T03:39:23;26.58;;;17.20;;
64515;SDS011;50891;37.380;-122.076;2022-10-22T03:41:50;26.55;;;17.15;;
64515;SDS011;50891;37.380;-122.076;2022-10-22T03:44:17;24.38;;;16.73;;
64515;SDS011;50891;37.380;-122.076;2022-10-22T03:46:45;29.50;;;17.63;;
64515;SDS011;50891;37.380;-122.076;2022-10-22T03:49:11;28.10;;;17.02;;
64515;SDS011;50891;37.380;-122.076;2022-10-22T03:51:37;26.17;;;16.60;;
64515;SDS011;50891;37.380;-122.076;2022-10-22T03:54:04;25.48;;;16.42;;
64515;SDS011;50891;37.380;-122.076;2022-10-22T03:56:31;25.80;;;16.88;;
64515;SDS011;50891;37.380;-122.076;2022-10-22T03:58:57;28.08;;;16.40;;
64515;SDS011;50891;37.380;-122.076;2022-10-22T04:01:25;25.65;;;16.38;;
64515;SDS011;50891;37.380;-122.076;2022-10-22T04:03:53;27.55;;;16.70;;
64515;SDS011;50891;37.380;-122.076;2022-10-22T04:06:20;27.25;;;16.75;;
64515;SDS011;50891;37.380;-122.076;2022-10-22T04:08:47;28.48;;;17.42;;
64515;SDS011;50891;37.380;-122.076;2022-10-22T04:11:13;26.40;;;17.33;;
64515;SDS011;50891;37.380;-122.076;2022-10-22T04:13:40;26.13;;;16.43;;
64515;SDS011;50891;37.380;-122.076;2022-10-22T04:16:14;27.00;;;17.58;;
64515;SDS011;50891;37.380;-122.076;2022-10-22T04:18:42;26.58;;;16.65;;
64515;SDS011;50891;37.380;-122.076;2022-10-22T04:21:10;26.88;;;17.42;;
64515;SDS011;50891;37.380;-122.076;2022-10-22T04:23:42;28.85;;;17.45;;
64515;SDS011;50891;37.380;-122.076;2022-10-22T04:26:10;26.88;;;17.50;;
64515;SDS011;50891;37.380;-122.076;2022-10-22T04:28:36;29.55;;;17.38;;
64515;SDS011;50891;37.380;-122.076;2022-10-22T04:31:09;26.75;;;17.30;;
64515;SDS011;50891;37.380;-122.076;2022-10-22T04:33:36;28.40;;;17.38;;
64515;SDS011;50891;37.380;-122.076;2022-10-22T04:36:10;28.40;;;16.85;;
64515;SDS011;50891;37.380;-122.076;2022-10-22T04:38:41;25.77;;;16.90;;
64515;SDS011;50891;37.380;-122.076;2022-10-22T04:41:15;27.40;;;17.63;;
64515;SDS011;50891;37.380;-122.076;2022-10-22T04:43:45;28.02;;;17.10;;
64515;SDS011;50891;37.380;-122.076;2022-10-22T04:46:13;25.90;;;16.63;;
64515;SDS011;50891;37.380;-122.076;2022-10-22T04:48:41;27.00;;;17.50;;
64515;SDS011;50891;37.380;-122.076;2022-10-22T04:51:10;26.90;;;17.15;;
64515;SDS011;50891;37.380;-122.076;2022-10-22T04:53:37;25.05;;;17.00;;
64515;SDS011;50891;37.380;-122.076;2022-10-22T04:58:45;27.42;;;18.02;;
64515;SDS011;50891;37.380;-122.076;2022-10-22T05:01:17;23.98;;;16.77;;
64515;SDS011;50891;37.380;-122.076;2022-10-22T05:03:43;27.25;;;17.05;;
64515;SDS011;50891;37.380;-122.076;2022-10-22T05:06:10;25.27;;;17.45;;
64515;SDS011;50891;37.380;-122.076;2022-10-22T05:08:38;25.27;;;17.38;;
64515;SDS011;50891;37.380;-122.076;2022-10-22T05:11:14;27.00;;;17.58;;
64515;SDS011;50891;37.380;-122.076;2022-10-22T05:13:49;25.92;;;16.80;;
64515;SDS011;50891;37.380;-122.076;2022-10-22T05:16:15;25.60;;;17.50;;
64515;SDS011;50891;37.380;-122.076;2022-10-22T05:18:42;26.65;;;17.48;;
64515;SDS011;50891;37.380;-122.076;2022-10-22T05:21:10;28.85;;;17.95;;
64515;SDS011;50891;37.380;-122.076;2022-10-22T05:23:39;26.00;;;17.27;;
64515;SDS011;50891;37.380;-122.076;2022-10-22T05:26:06;27.02;;;17.20;;
64515;SDS011;50891;37.380;-122.076;2022-10-22T05:28:33;26.58;;;18.20;;
64515;SDS011;50891;37.380;-122.076;2022-10-22T05:31:00;25.97;;;16.93;;
64515;SDS011;50891;37.380;-122.076;2022-10-22T05:33:27;27.20;;;17.75;;
64515;SDS011;50891;37.380;-122.076;2022-10-22T05:35:54;26.70;;;17.75;;
64515;SDS011;50891;37.380;-122.076;2022-10-22T05:38:21;28.05;;;17.65;;
64515;SDS011;50891;37.380;-122.076;2022-10-22T05:40:48;26.23;;;16.48;;
64515;SDS011;50891;37.380;-122.076;2022-10-22T05:43:27;27.10;;;17.37;;
64515;SDS011;50891;37.380;-122.076;2022-10-22T05:45:54;26.13;;;16.70;;
64515;SDS011;50891;37.380;-122.076;2022-10-22T05:48:20;25.80;;;16.10;;
64515;SDS011;50891;37.380;-122.076;2022-10-22T05:50:47;27.75;;;17.48;;
64515;SDS011;50891;37.380;-122.076;2022-10-22T05:53:17;25.00;;;16.17;;
64515;SDS011;50891;37.380;-122.076;2022-10-22T05:55:44;24.58;;;16.60;;
64515;SDS011;50891;37.380;-122.076;2022-10-22T05:58:11;27.10;;;16.77;;
64515;SDS011;50891;37.380;-122.076;2022-10-22T06:00:38;28.63;;;17.52;;
64515;SDS011;50891;37.380;-122.076;2022-10-22T06:03:04;27.05;;;17.10;;
64515;SDS011;50891;37.380;-122.076;2022-10-22T06:05:33;30.33;;;17.40;;
64515;SDS011;50891;37.380;-122.076;2022-10-22T06:08:00;32.58;;;18.05;;
64515;SDS011;50891;37.380;-122.076;2022-10-22T06:10:27;36.53;;;18.83;;
64515;SDS011;50891;37.380;-122.076;2022-10-22T06:12:53;34.78;;;18.23;;
64515;SDS011;50891;37.380;-122.076;2022-10-22T06:15:19;61.05;;;21.83;;
64515;SDS011;50891;37.380;-122.076;2022-10-22T06:17:46;53.70;;;20.42;;
64515;SDS011;50891;37.380;-122.076;2022-10-22T06:20:13;39.40;;;19.23;;
64515;SDS011;50891;37.380;-122.076;2022-10-22T06:22:39;43.35;;;19.10;;
64515;SDS011;50891;37.380;-122.076;2022-10-22T06:25:05;41.42;;;18.48;;
64515;SDS011;50891;37.380;-122.076;2022-10-22T06:27:35;47.30;;;19.60;;
64515;SDS011;50891;37.380;-122.076;2022-10-22T06:30:01;39.85;;;18.38;;
64515;SDS011;50891;37.380;-122.076;2022-10-22T06:32:28;41.40;;;19.00;;
64515;SDS011;50891;37.380;-122.076;2022-10-22T06:34:54;38.97;;;19.17;;
64515;SDS011;50891;37.380;-122.076;2022-10-22T06:37:20;39.55;;;18.45;;
64515;SDS011;50891;37.380;-122.076;2022-10-22T06:39:47;37.38;;;18.77;;
64515;SDS011;50891;37.380;-122.076;2022-10-22T06:42:13;37.95;;;18.88;;
64515;SDS011;50891;37.380;-122.076;2022-10-22T06:44:39;39.13;;;19.38;;
64515;SDS011;50891;37.380;-122.076;2022-10-22T06:47:05;39.58;;;18.27;;
64515;SDS011;50891;37.380;-122.076;2022-10-22T06:49:31;40.65;;;18.77;;
64515;SDS011;50891;37.380;-122.076;2022-10-22T06:51:57;36.22;;;17.95;;
64515;SDS011;50891;37.380;-122.076;2022-10-22T06:54:23;37.38;;;18.10;;
64515;SDS011;50891;37.380;-122.076;2022-10-22T06:56:50;37.58;;;18.77;;
64515;SDS011;50891;37.380;-122.076;2022-10-22T06:59:16;37.75;;;18.88;;
64515;SDS011;50891;37.380;-122.076;2022-10-22T07:01:42;45.47;;;19.70;;
64515;SDS011;50891;37.380;-122.076;2022-10-22T07:04:08;41.13;;;19.02;;
64515;SDS011;50891;37.380;-122.076;2022-10-22T07:06:35;40.03;;;18.35;;
64515;SDS011;50891;37.380;-122.076;2022-10-22T07:09:01;51.85;;;21.48;;
64515;SDS011;50891;37.380;-122.076;2022-10-22T07:11:35;64.93;;;24.75;;
64515;SDS011;50891;37.380;-122.076;2022-10-22T07:14:04;66.72;;;24.30;;
64515;SDS011;50891;37.380;-122.076;2022-10-22T07:16:30;52.63;;;21.38;;
64515;SDS011;50891;37.380;-122.076;2022-10-22T07:18:57;72.47;;;24.35;;
64515;SDS011;50891;37.380;-122.076;2022-10-22T07:21:23;57.45;;;21.73;;
64515;SDS011;50891;37.380;-122.076;2022-10-22T07:23:50;71.80;;;24.27;;
64515;SDS011;50891;37.380;-122.076;2022-10-22T07:26:16;82.68;;;26.20;;
64515;SDS011;50891;37.380;-122.076;2022-10-22T07:28:45;74.80;;;24.70;;
64515;SDS011;50891;37.380;-122.076;2022-10-22T07:31:12;70.73;;;23.80;;
64515;SDS011;50891;37.380;-122.076;2022-10-22T07:33:41;70.68;;;22.90;;
64515;SDS011;50891;37.380;-122.076;2022-10-22T07:36:09;68.85;;;22.95;;
64515;SDS011;50891;37.380;-122.076;2022-10-22T07:38:42;60.33;;;21.67;;
64515;SDS011;50891;37.380;-122.076;2022-10-22T07:41:10;65.37;;;22.00;;
64515;SDS011;50891;37.380;-122.076;2022-10-22T07:43:36;63.45;;;21.40;;
64515;SDS011;50891;37.380;-122.076;2022-10-22T07:46:03;54.80;;;20.38;;
64515;SDS011;50891;37.380;-122.076;2022-10-22T07:48:29;50.58;;;19.10;;
64515;SDS011;50891;37.380;-122.076;2022-10-22T07:50:55;49.63;;;19.80;;
64515;SDS011;50891;37.380;-122.076;2022-10-22T07:53:22;51.78;;;19.58;;
64515;SDS011;50891;37.380;-122.076;2022-10-22T07:55:50;48.03;;;18.17;;
64515;SDS011;50891;37.380;-122.076;2022-10-22T07:58:17;47.17;;;18.45;;
64515;SDS011;50891;37.380;-122.076;2022-10-22T08:00:43;41.30;;;17.40;;
64515;SDS011;50891;37.380;-122.076;2022-10-22T08:03:10;41.28;;;17.23;;
64515;SDS011;50891;37.380;-122.076;2022-10-22T08:05:37;37.42;;;17.00;;
64515;SDS011;50891;37.380;-122.076;2022-10-22T08:08:04;36.45;;;17.23;;
64515;SDS011;50891;37.380;-122.076;2022-10-22T08:10:31;39.30;;;17.23;;
64515;SDS011;50891;37.380;-122.076;2022-10-22T08:12:59;37.88;;;16.90;;
64515;SDS011;50891;37.380;-122.076;2022-10-22T08:15:25;38.17;;;17.10;;
64515;SDS011;50891;37.380;-122.076;2022-10-22T08:17:52;37.07;;;16.77;;
64515;SDS011;50891;37.380;-122.076;2022-10-22T08:20:18;37.25;;;17.13;;
64515;SDS011;50891;37.380;-122.076;2022-10-22T08:22:44;38.63;;;17.23;;
64515;SDS011;50891;37.380;-122.076;2022-10-22T08:25:11;34.67;;;16.50;;
64515;SDS011;50891;37.380;-122.076;2022-10-22T08:27:37;35.70;;;17.10;;
64515;SDS011;50891;37.380;-122.076;2022-10-22T08:30:04;33.30;;;16.10;;
64515;SDS011;50891;37.380;-122.076;2022-10-22T08:32:31;31.77;;;15.98;;
64515;SDS011;50891;37.380;-122.076;2022-10-22T08:34:57;31.73;;;15.93;;
64515;SDS011;50891;37.380;-122.076;2022-10-22T08:37:23;31.85;;;16.23;;
64515;SDS011;50891;37.380;-122.076;2022-10-22T08:39:50;31.23;;;16.08;;
64515;SDS011;50891;37.380;-122.076;2022-10-22T08:50:49;29.10;;;15.30;;
64515;SDS011;50891;37.380;-122.076;2022-10-22T08:53:20;28.58;;;15.80;;
64515;SDS011;50891;37.380;-122.076;2022-10-22T08:55:55;29.17;;;15.55;;
64515;SDS011;50891;37.380;-122.076;2022-10-22T08:58:30;28.90;;;15.32;;
64515;SDS011;50891;37.380;-122.076;2022-10-22T09:01:23;28.45;;;16.02;;
64515;SDS011;50891;37.380;-122.076;2022-10-22T09:07:07;25.23;;;14.75;;
64515;SDS011;50891;37.380;-122.076;2022-10-22T09:09:37;26.43;;;14.97;;
64515;SDS011;50891;37.380;-122.076;2022-10-22T09:12:15;27.37;;;15.07;;
64515;SDS011;50891;37.380;-122.076;2022-10-22T09:14:42;26.90;;;15.35;;
64515;SDS011;50891;37.380;-122.076;2022-10-22T09:20:08;26.02;;;15.00;;
64515;SDS011;50891;37.380;-122.076;2022-10-22T09:23:12;27.45;;;15.85;;
64515;SDS011;50891;37.380;-122.076;2022-10-22T09:25:52;22.70;;;14.47;;
64515;SDS011;50891;37.380;-122.076;2022-10-22T09:28:19;25.48;;;15.07;;
64515;SDS011;50891;37.380;-122.076;2022-10-22T09:30:45;25.20;;;15.27;;
64515;SDS011;50891;37.380;-122.076;2022-10-22T09:33:13;23.40;;;14.35;;
64515;SDS011;50891;37.380;-122.076;2022-10-22T09:35:46;24.05;;;14.48;;
64515;SDS011;50891;37.380;-122.076;2022-10-22T09:38:17;24.92;;;14.82;;
64515;SDS011;50891;37.380;-122.076;2022-10-22T09:40:48;23.83;;;14.70;;
64515;SDS011;50891;37.380;-122.076;2022-10-22T09:43:18;24.67;;;14.48;;
64515;SDS011;50891;37.380;-122.076;2022-10-22T09:45:45;22.52;;;14.50;;
64515;SDS011;50891;37.380;-122.076;2022-10-22T09:48:20;22.63;;;14.35;;
64515;SDS011;50891;37.380;-122.076;2022-10-22T09:51:04;22.27;;;14.38;;
64515;SDS011;50891;37.380;-122.076;2022-10-22T09:53:46;23.58;;;14.68;;
64515;SDS011;50891;37.380;-122.076;2022-10-22T09:58:54;21.00;;;14.02;;
64515;SDS011;50891;37.380;-122.076;2022-10-22T10:01:32;21.52;;;14.13;;
64515;SDS011;50891;37.380;-122.076;2022-10-22T10:04:03;22.33;;;14.52;;
64515;SDS011;50891;37.380;-122.076;2022-10-22T10:06:32;23.77;;;14.48;;
64515;SDS011;50891;37.380;-122.076;2022-10-22T10:09:00;22.05;;;14.27;;
64515;SDS011;50891;37.380;-122.076;2022-10-22T10:16:48;22.63;;;14.53;;
64515;SDS011;50891;37.380;-122.076;2022-10-22T10:22:21;22.15;;;14.15;;
64515;SDS011;50891;37.380;-122.076;2022-10-22T10:27:41;20.90;;;14.33;;
64515;SDS011;50891;37.380;-122.076;2022-10-22T10:36:01;21.92;;;13.77;;
64515;SDS011;50891;37.380;-122.076;2022-10-22T10:51:44;21.35;;;14.30;;
64515;SDS011;50891;37.380;-122.076;2022-10-22T10:57:17;18.50;;;13.32;;
64515;SDS011;50891;37.380;-122.076;2022-10-22T11:00:14;22.10;;;13.60;;
64515;SDS011;50891;37.380;-122.076;2022-10-22T11:05:21;20.17;;;13.50;;
64515;SDS011;50891;37.380;-122.076;2022-10-22T11:08:12;20.88;;;13.45;;
64515;SDS011;50891;37.380;-122.076;2022-10-22T11:10:58;20.48;;;13.50;;
64515;SDS011;50891;37.380;-122.076;2022-10-22T11:13:53;20.52;;;13.18;;
64515;SDS011;50891;37.380;-122.076;2022-10-22T11:19:10;19.40;;;12.98;;
64515;SDS011;50891;37.380;-122.076;2022-10-22T11:21:56;20.33;;;13.43;;
64515;SDS011;50891;37.380;-122.076;2022-10-22T11:24:42;21.38;;;13.65;;
64515;SDS011;50891;37.380;-122.076;2022-10-22T11:27:24;19.87;;;12.97;;
64515;SDS011;50891;37.380;-122.076;2022-10-22T11:30:03;20.38;;;13.48;;
64515;SDS011;50891;37.380;-122.076;2022-10-22T11:32:36;19.10;;;13.20;;
64515;SDS011;50891;37.380;-122.076;2022-10-22T11:35:05;19.60;;;13.10;;
64515;SDS011;50891;37.380;-122.076;2022-10-22T11:37:37;20.13;;;13.30;;
64515;SDS011;50891;37.380;-122.076;2022-10-22T11:40:05;19.63;;;13.13;;
64515;SDS011;50891;37.380;-122.076;2022-10-22T11:42:40;20.70;;;12.90;;
64515;SDS011;50891;37.380;-122.076;2022-10-22T11:45:31;19.58;;;13.43;;
64515;SDS011;50891;37.380;-122.076;2022-10-22T11:50:46;20.67;;;13.05;;
64515;SDS011;50891;37.380;-122.076;2022-10-22T12:16:54;20.17;;;12.73;;
64515;SDS011;50891;37.380;-122.076;2022-10-22T12:21:59;21.85;;;12.80;;
64515;SDS011;50891;37.380;-122.076;2022-10-22T12:24:31;19.77;;;12.63;;
64515;SDS011;50891;37.380;-122.076;2022-10-22T12:27:02;22.35;;;12.57;;
64515;SDS011;50891;37.380;-122.076;2022-10-22T12:29:29;21.52;;;13.00;;
64515;SDS011;50891;37.380;-122.076;2022-10-22T12:32:00;22.00;;;12.70;;
64515;SDS011;50891;37.380;-122.076;2022-10-22T12:34:28;20.67;;;12.90;;
64515;SDS011;50891;37.380;-122.076;2022-10-22T12:36:55;22.20;;;13.00;;
64515;SDS011;50891;37.380;-122.076;2022-10-22T12:39:23;20.10;;;12.80;;
64515;SDS011;50891;37.380;-122.076;2022-10-22T12:41:52;21.05;;;13.05;;
64515;SDS011;50891;37.380;-122.076;2022-10-22T12:44:18;19.52;;;12.20;;
64515;SDS011;50891;37.380;-122.076;2022-10-22T12:46:48;22.08;;;12.95;;
64515;SDS011;50891;37.380;-122.076;2022-10-22T12:49:22;20.35;;;12.65;;
64515;SDS011;50891;37.380;-122.076;2022-10-22T12:51:59;20.35;;;12.73;;
64515;SDS011;50891;37.380;-122.076;2022-10-22T12:54:28;19.08;;;12.60;;
64515;SDS011;50891;37.380;-122.076;2022-10-22T12:56:57;19.77;;;12.50;;
64515;SDS011;50891;37.380;-122.076;2022-10-22T12:59:28;19.23;;;12.47;;
64515;SDS011;50891;37.380;-122.076;2022-10-22T13:01:59;19.70;;;12.45;;
64515;SDS011;50891;37.380;-122.076;2022-10-22T13:07:12;21.55;;;13.18;;
64515;SDS011;50891;37.380;-122.076;2022-10-22T13:09:43;19.70;;;12.48;;
64515;SDS011;50891;37.380;-122.076;2022-10-22T13:12:12;18.85;;;12.55;;
64515;SDS011;50891;37.380;-122.076;2022-10-22T13:14:44;20.75;;;13.18;;
64515;SDS011;50891;37.380;-122.076;2022-10-22T13:17:18;18.92;;;12.43;;
64515;SDS011;50891;37.380;-122.076;2022-10-22T13:20:02;20.02;;;12.48;;
64515;SDS011;50891;37.380;-122.076;2022-10-22T13:22:34;18.85;;;12.20;;
64515;SDS011;50891;37.380;-122.076;2022-10-22T13:27:48;18.00;;;11.90;;
64515;SDS011;50891;37.380;-122.076;2022-10-22T13:30:35;20.75;;;12.65;;
64515;SDS011;50891;37.380;-122.076;2022-10-22T13:33:20;17.38;;;12.13;;
64515;SDS011;50891;37.380;-122.076;2022-10-22T13:35:54;18.70;;;12.38;;
64515;SDS011;50891;37.380;-122.076;2022-10-22T13:38:22;19.80;;;12.10;;
64515;SDS011;50891;37.380;-122.076;2022-10-22T13:40:50;18.38;;;12.45;;
64515;SDS011;50891;37.380;-122.076;2022-10-22T13:43:17;19.70;;;12.25;;
64515;SDS011;50891;37.380;-122.076;2022-10-22T13:45:44;20.92;;;12.63;;
64515;SDS011;50891;37.380;-122.076;2022-10-22T13:48:16;19.13;;;12.40;;
64515;SDS011;50891;37.380;-122.076;2022-10-22T13:50:49;18.20;;;12.30;;
64515;SDS011;50891;37.380;-122.076;2022-10-22T13:53:17;20.90;;;12.63;;
64515;SDS011;50891;37.380;-122.076;2022-10-22T13:55:48;19.42;;;12.20;;
64515;SDS011;50891;37.380;-122.076;2022-10-22T13:58:16;19.83;;;12.50;;
64515;SDS011;50891;37.380;-122.076;2022-10-22T14:00:48;19.45;;;12.95;;
64515;SDS011;50891;37.380;-122.076;2022-10-22T14:03:19;18.55;;;12.60;;
64515;SDS011;50891;37.380;-122.076;2022-10-22T14:05:48;19.08;;;12.30;;
64515;SDS011;50891;37.380;-122.076;2022-10-22T14:08:15;18.52;;;12.45;;
64515;SDS011;50891;37.380;-122.076;2022-10-22T14:10:44;17.38;;;11.65;;
64515;SDS011;50891;37.380;-122.076;2022-10-22T14:13:11;17.55;;;11.57;;
64515;SDS011;50891;37.380;-122.076;2022-10-22T14:15:38;16.55;;;11.20;;
64515;SDS011;50891;37.380;-122.076;2022-10-22T14:18:05;17.92;;;11.70;;
64515;SDS011;50891;37.380;-122.076;2022-10-22T14:20:34;17.10;;;11.40;;
64515;SDS011;50891;37.380;-122.076;2022-10-22T14:23:06;16.77;;;11.30;;
64515;SDS011;50891;37.380;-122.076;2022-10-22T14:25:39;17.10;;;11.47;;
64515;SDS011;50891;37.380;-122.076;2022-10-22T14:28:07;17.13;;;11.57;;
64515;SDS011;50891;37.380;-122.076;2022-10-22T14:30:35;16.83;;;11.10;;
64515;SDS011;50891;37.380;-122.076;2022-10-22T14:33:01;16.23;;;11.00;;
64515;SDS011;50891;37.380;-122.076;2022-10-22T14:35:34;14.90;;;10.38;;
64515;SDS011;50891;37.380;-122.076;2022-10-22T14:38:00;16.52;;;10.88;;
64515;SDS011;50891;37.380;-122.076;2022-10-22T14:40:27;16.05;;;10.43;;
64515;SDS011;50891;37.380;-122.076;2022-10-22T14:42:53;16.17;;;10.67;;
64515;SDS011;50891;37.380;-122.076;2022-10-22T14:45:23;15.27;;;9.88;;
64515;SDS011;50891;37.380;-122.076;2022-10-22T14:47:51;14.65;;;9.63;;
64515;SDS011;50891;37.380;-122.076;2022-10-22T14:50:22;13.45;;;9.38;;
64515;SDS011;50891;37.380;-122.076;2022-10-22T14:52:49;13.95;;;9.45;;
64515;SDS011;50891;37.380;-122.076;2022-10-22T14:55:17;14.15;;;8.90;;
64515;SDS011;50891;37.380;-122.076;2022-10-22T14:57:44;13.13;;;9.00;;
64515;SDS011;50891;37.380;-122.076;2022-10-22T15:00:12;13.82;;;8.60;;
64515;SDS011;50891;37.380;-122.076;2022-10-22T15:02:41;14.07;;;8.47;;
64515;SDS011;50891;37.380;-122.076;2022-10-22T15:05:07;12.32;;;8.52;;
64515;SDS011;50891;37.380;-122.076;2022-10-22T15:07:34;13.63;;;8.40;;
64515;SDS011;50891;37.380;-122.076;2022-10-22T15:10:00;11.93;;;8.25;;
64515;SDS011;50891;37.380;-122.076;2022-10-22T15:12:27;11.50;;;7.70;;
64515;SDS011;50891;37.380;-122.076;2022-10-22T15:14:53;12.57;;;7.18;;
64515;SDS011;50891;37.380;-122.076;2022-10-22T15:17:19;10.55;;;7.03;;
64515;SDS011;50891;37.380;-122.076;2022-10-22T15:19:45;11.07;;;7.00;;
64515;SDS011;50891;37.380;-122.076;2022-10-22T15:22:12;11.00;;;6.80;;
64515;SDS011;50891;37.380;-122.076;2022-10-22T15:24:39;10.10;;;6.20;;
64515;SDS011;50891;37.380;-122.076;2022-10-22T15:27:12;9.35;;;6.00;;
64515;SDS011;50891;37.380;-122.076;2022-10-22T15:29:39;9.80;;;5.60;;
64515;SDS011;50891;37.380;-122.076;2022-10-22T15:32:05;9.95;;;5.47;;
64515;SDS011;50891;37.380;-122.076;2022-10-22T15:34:35;9.80;;;5.32;;
64515;SDS011;50891;37.380;-122.076;2022-10-22T15:37:03;8.93;;;5.32;;
64515;SDS011;50891;37.380;-122.076;2022-10-22T15:39:31;8.93;;;5.38;;
64515;SDS011;50891;37.380;-122.076;2022-10-22T15:41:58;9.13;;;4.97;;
64515;SDS011;50891;37.380;-122.076;2022-10-22T15:44:25;8.57;;;4.70;;
64515;SDS011;50891;37.380;-122.076;2022-10-22T15:46:53;8.50;;;4.90;;
64515;SDS011;50891;37.380;-122.076;2022-10-22T15:49:24;8.73;;;4.60;;
64515;SDS011;50891;37.380;-122.076;2022-10-22T15:51:51;7.60;;;4.40;;
64515;SDS011;50891;37.380;-122.076;2022-10-22T15:54:20;7.40;;;4.05;;
64515;SDS011;50891;37.380;-122.076;2022-10-22T15:56:53;8.57;;;4.20;;
64515;SDS011;50891;37.380;-122.076;2022-10-22T15:59:20;8.10;;;4.25;;
64515;SDS011;50891;37.380;-122.076;2022-10-22T16:01:47;7.90;;;3.83;;
64515;SDS011;50891;37.380;-122.076;2022-10-22T16:04:13;8.55;;;3.85;;
64515;SDS011;50891;37.380;-122.076;2022-10-22T16:06:41;8.05;;;3.70;;
64515;SDS011;50891;37.380;-122.076;2022-10-22T16:09:12;8.98;;;3.80;;
64515;SDS011;50891;37.380;-122.076;2022-10-22T16:11:40;8.88;;;3.92;;